createdAt,value
2019-02-08T00:02:00.181Z,99061.38
2019-02-08T00:08:08.853Z,99084.97
2019-02-08T00:14:14.298Z,99084.60
2019-02-08T00:20:21.649Z,99086.41
2019-02-08T00:26:26.406Z,99094.37
2019-02-08T00:32:30.968Z,99080.34
2019-02-08T00:38:35.607Z,99083.55
2019-02-08T00:44:40.583Z,99085.52
2019-02-08T00:50:45.389Z,99090.70
2019-02-08T00:56:49.952Z,99095.08
2019-02-08T01:02:56.344Z,99099.08
2019-02-08T01:09:01.082Z,99101.23
2019-02-08T01:15:10.030Z,99104.91
2019-02-08T01:21:17.537Z,99108.72
2019-02-08T01:27:22.252Z,99107.53
2019-02-08T01:33:27.253Z,99103.89
2019-02-08T01:39:32.102Z,99104.39
2019-02-08T01:45:37.095Z,99106.88
2019-02-08T01:51:41.839Z,99115.84
2019-02-08T01:57:50.218Z,99115.70
2019-02-08T02:03:54.922Z,99120.31
2019-02-08T02:09:59.480Z,99128.80
2019-02-08T02:16:04.937Z,99125.17
2019-02-08T02:22:09.961Z,99129.95
2019-02-08T02:28:14.988Z,99130.13
2019-02-08T02:34:22.971Z,99141.22
2019-02-08T02:40:28.210Z,99150.52
2019-02-08T02:46:32.837Z,99149.55
2019-02-08T02:52:37.741Z,99148.54
2019-02-08T02:58:42.957Z,99146.86
2019-02-08T03:04:47.540Z,99148.73
2019-02-08T03:10:52.222Z,99162.16
2019-02-08T03:16:56.874Z,99155.51
2019-02-08T03:23:01.659Z,99151.34
2019-02-08T03:29:06.731Z,99161.47
2019-02-08T03:35:16.275Z,99155.83
2019-02-08T03:41:21.226Z,99136.55
2019-02-08T03:47:28.192Z,99154.19
2019-02-08T03:53:32.749Z,99154.55
2019-02-08T03:59:37.460Z,99155.19
2019-02-08T04:05:42.685Z,99154.69
2019-02-08T04:11:47.751Z,99146.39
2019-02-08T04:17:52.631Z,99150.20
2019-02-08T04:24:00.095Z,99148.55
2019-02-08T04:30:11.340Z,99152.67
2019-02-08T04:36:16.080Z,99160.64
2019-02-08T04:42:20.714Z,99157.34
2019-02-08T04:48:25.501Z,99164.30
2019-02-08T04:54:37.890Z,99162.97
2019-02-08T05:00:37.907Z,99152.34
2019-02-08T05:06:44.979Z,99148.55
2019-02-08T05:12:50.125Z,99155.19
2019-02-08T05:18:54.693Z,99151.52
2019-02-08T05:24:59.339Z,99150.32
2019-02-08T05:31:04.079Z,99145.71
2019-02-08T05:37:08.896Z,99145.20
2019-02-08T05:43:13.976Z,99148.55
2019-02-08T05:49:19.424Z,99145.23
2019-02-08T05:55:32.538Z,99145.57
2019-02-08T06:01:37.340Z,99141.27
2019-02-08T06:07:44.268Z,99137.59
2019-02-08T06:13:48.921Z,99128.33
2019-02-08T06:19:53.540Z,99131.63
2019-02-08T06:25:58.364Z,99128.16
2019-02-08T06:32:03.138Z,99142.59
2019-02-08T06:38:08.551Z,99154.22
2019-02-08T06:44:13.793Z,99140.58
2019-02-08T06:50:22.481Z,99136.39
2019-02-08T06:56:44.756Z,99133.44
2019-02-08T07:03:07.370Z,99145.70
2019-02-08T07:09:13.985Z,99151.65
2019-02-08T07:15:29.451Z,99147.45
2019-02-08T07:21:35.674Z,99137.41
2019-02-08T07:27:44.535Z,99151.14
2019-02-08T07:33:50.828Z,99155.11
2019-02-08T07:40:07.851Z,99164.34
2019-02-08T07:46:27.361Z,99155.99
2019-02-08T07:52:48.347Z,99176.45
2019-02-08T07:59:10.941Z,99176.03
2019-02-08T08:05:23.061Z,99164.39
2019-02-08T08:11:35.125Z,99170.52
2019-02-08T08:17:44.607Z,99170.42
2019-02-08T08:23:52.656Z,99166.31
2019-02-08T08:30:08.122Z,99161.52
2019-02-08T08:36:23.193Z,99159.20
2019-02-08T08:42:46.964Z,99170.66
2019-02-08T08:48:58.685Z,99154.64
2019-02-08T08:55:46.914Z,99160.69
2019-02-08T09:02:12.248Z,99166.88
2019-02-08T09:08:45.416Z,99156.48
2019-02-08T09:15:19.875Z,99146.45
2019-02-08T09:22:00.289Z,99140.94
2019-02-08T09:28:26.780Z,99139.48
2019-02-08T09:34:36.107Z,99137.19
2019-02-08T09:41:34.870Z,99139.89
2019-02-08T09:48:07.981Z,99120.77
2019-02-08T09:54:46.384Z,99134.57
2019-02-08T10:01:12.078Z,99139.55
2019-02-08T10:07:30.077Z,99127.31
2019-02-08T10:14:13.668Z,99138.57
2019-02-08T10:20:40.456Z,99132.88
2019-02-08T10:27:20.689Z,99140.61
2019-02-08T10:34:04.394Z,99142.38
2019-02-08T10:40:31.245Z,99139.47
2019-02-08T10:47:14.374Z,99126.41
2019-02-08T10:54:00.169Z,99144.83
2019-02-08T11:00:45.191Z,99144.30
2019-02-08T11:07:16.659Z,99139.32
2019-02-08T11:13:31.615Z,99129.95
2019-02-08T11:19:34.717Z,99125.34
2019-02-08T11:25:39.675Z,99116.02
2019-02-08T11:31:44.474Z,99114.69
2019-02-08T11:37:49.171Z,99100.16
2019-02-08T11:43:53.999Z,99107.34
2019-02-08T11:50:03.327Z,99089.50
2019-02-08T11:56:08.293Z,99072.78
2019-02-08T12:02:12.929Z,99049.26
2019-02-08T12:08:17.912Z,99054.94
2019-02-08T12:14:22.529Z,99058.22
2019-02-08T12:20:27.150Z,99048.58
2019-02-08T12:26:37.691Z,99042.95
2019-02-08T12:32:38.811Z,99021.95
2019-02-08T12:38:43.410Z,99011.38
2019-02-08T12:44:48.121Z,98999.70
2019-02-08T12:50:52.764Z,99008.98
2019-02-08T12:56:57.395Z,98996.61
2019-02-08T13:03:01.983Z,99003.63
2019-02-08T13:09:10.224Z,98994.79
2019-02-08T13:15:16.710Z,98978.81
2019-02-08T13:21:21.333Z,98977.68
2019-02-08T13:27:26.054Z,98966.81
2019-02-08T13:33:30.772Z,98943.46
2019-02-08T13:39:35.922Z,98947.19
2019-02-08T13:45:42.533Z,98950.45
2019-02-08T13:51:47.120Z,98928.56
2019-02-08T13:57:51.861Z,98924.72
2019-02-08T14:03:56.593Z,98922.88
2019-02-08T14:10:02.190Z,98936.05
2019-02-08T14:16:07.264Z,98931.40
2019-02-08T14:22:11.958Z,98922.72
2019-02-08T14:28:16.543Z,98909.76
2019-02-08T14:34:21.103Z,98901.16
2019-02-08T14:40:28.826Z,98892.12
2019-02-08T14:46:33.735Z,98871.34
2019-02-08T14:52:38.351Z,98866.52
2019-02-08T14:58:42.977Z,98864.33
2019-02-08T15:04:48.499Z,98868.84
2019-02-08T15:10:54.299Z,98857.34
2019-02-08T15:16:58.946Z,98854.88
2019-02-08T15:23:04.060Z,98843.81
2019-02-08T15:29:08.856Z,98835.87
2019-02-08T15:35:18.528Z,98825.00
2019-02-08T15:41:23.163Z,98817.73
2019-02-08T15:47:28.005Z,98815.36
2019-02-08T15:53:34.086Z,98809.27
2019-02-08T15:59:39.069Z,98803.83
2019-02-08T16:05:43.783Z,98793.22
2019-02-08T16:17:59.224Z,98772.98
2019-02-08T16:24:06.403Z,98766.02
2019-02-08T16:30:21.512Z,98771.88
2019-02-08T16:36:26.140Z,98777.20
2019-02-08T16:42:30.901Z,98763.20
2019-02-08T16:48:37.180Z,98755.62
2019-02-08T16:54:41.866Z,98766.80
2019-02-08T17:00:49.321Z,98756.88
2019-02-08T17:06:54.119Z,98740.16
2019-02-08T17:12:59.226Z,98735.93
2019-02-08T17:19:04.174Z,98735.75
2019-02-08T17:25:08.952Z,98736.47
2019-02-08T17:31:13.578Z,98728.86
2019-02-08T17:37:18.140Z,98711.14
2019-02-08T17:43:22.774Z,98697.73
2019-02-08T17:49:27.320Z,98693.15
2019-02-08T17:55:32.329Z,98692.11
2019-02-08T18:01:37.393Z,98693.00
2019-02-08T18:07:41.983Z,98685.78
2019-02-08T18:13:46.701Z,98688.23
2019-02-08T18:19:51.339Z,98679.67
2019-02-08T18:25:55.952Z,98666.48
2019-02-08T18:32:00.868Z,98658.56
2019-02-08T18:38:06.337Z,98646.67
2019-02-08T18:44:12.196Z,98639.30
2019-02-08T18:50:21.228Z,98630.64
2019-02-08T18:56:25.853Z,98624.22
2019-02-08T19:02:30.827Z,98615.74
2019-02-08T19:08:35.663Z,98621.76
2019-02-08T19:14:40.411Z,98606.97
2019-02-08T19:20:45.091Z,98600.05
2019-02-08T19:26:49.650Z,98592.04
2019-02-08T19:32:54.651Z,98579.78
2019-02-08T19:38:59.405Z,98580.84
2019-02-08T19:45:07.036Z,98557.65
2019-02-08T19:51:11.655Z,98549.38
2019-02-08T19:57:16.272Z,98522.83
2019-02-08T20:03:20.826Z,98524.77
2019-02-08T20:09:25.603Z,98515.13
2019-02-08T20:15:31.922Z,98509.66
2019-02-08T20:21:36.622Z,98496.22
2019-02-08T20:27:41.404Z,98479.15
2019-02-08T20:33:46.076Z,98479.66
2019-02-08T20:39:50.783Z,98460.70
2019-02-08T20:45:56.546Z,98463.23
2019-02-08T20:52:01.317Z,98464.56
2019-02-08T20:58:10.070Z,98464.22
2019-02-08T21:04:14.879Z,98455.31
2019-02-08T21:10:22.890Z,98426.72
2019-02-08T21:16:27.466Z,98419.81
2019-02-08T21:22:32.030Z,98406.51
2019-02-08T21:28:36.914Z,98398.92
2019-02-08T21:34:41.591Z,98401.98
2019-02-08T21:40:46.405Z,98383.73
2019-02-08T21:46:51.019Z,98376.94
2019-02-08T21:52:57.041Z,98372.42
2019-02-08T21:59:06.147Z,98365.14
2019-02-08T22:05:13.622Z,98354.97
2019-02-08T22:11:18.487Z,98341.52
2019-02-08T22:23:34.005Z,98329.02
2019-02-08T22:29:38.741Z,98307.22
2019-02-08T22:35:43.379Z,98307.75
2019-02-08T22:41:48.004Z,98292.16
2019-02-08T22:47:54.554Z,98278.77
2019-02-08T22:53:59.205Z,98280.94
2019-02-08T23:00:06.448Z,98289.77
2019-02-08T23:06:11.134Z,98290.41
2019-02-08T23:12:15.747Z,98271.52
2019-02-08T23:18:20.288Z,98266.89
2019-02-08T23:24:24.835Z,98267.19
2019-02-08T23:30:29.637Z,98245.65
2019-02-08T23:36:34.304Z,98237.53
2019-02-08T23:42:38.857Z,98235.02
2019-02-08T23:48:50.127Z,98229.27
2019-02-08T23:54:55.160Z,98227.23
